Time;durP1;ratioP1;P1;durP2;ratioP2;P2;SDS_P1;SDS_P2;PMS_P1;PMS_P2;Temp;Humidity;BMP_temperature;BMP_pressure;BME280_temperature;BME280_humidity;BME280_pressure;Samples;Min_cycle;Max_cycle;Signal;HPM_P1;HPM_P2
2022/05/20 00:31:47;;;;;;;18.98;14.18;;;13.60;99.90;;;;;;4971310;28;20038;-58
2022/05/20 00:34:13;;;;;;;19.63;15.35;;;13.60;99.90;;;;;;4966907;28;20050;-57
2022/05/20 00:36:39;;;;;;;19.95;14.50;;;13.60;99.90;;;;;;4969732;28;20035;-57
2022/05/20 00:39:04;;;;;;;19.05;14.45;;;13.60;99.90;;;;;;4972538;28;20601;-57
2022/05/20 00:41:30;;;;;;;19.05;14.50;;;13.70;99.90;;;;;;4968229;28;20174;-57
2022/05/20 00:43:58;;;;;;;18.33;14.50;;;13.60;99.90;;;;;;4953000;28;20039;-57
2022/05/20 00:46:26;;;;;;;17.15;14.02;;;13.70;99.90;;;;;;4955870;28;20487;-57
2022/05/20 00:49:13;;;;;;;20.27;13.50;;;13.50;99.90;;;;;;4961749;28;20126;-57
2022/05/20 00:51:51;;;;;;;18.95;13.80;;;13.50;99.90;;;;;;4970714;28;20459;-57
2022/05/20 00:54:27;;;;;;;21.80;14.35;;;13.40;99.90;;;;;;4971975;28;20043;-57
2022/05/20 00:56:58;;;;;;;20.73;14.30;;;13.40;99.90;;;;;;4972242;28;20054;-57
2022/05/20 00:59:27;;;;;;;18.45;13.68;;;13.30;99.90;;;;;;4972178;28;20039;-57
2022/05/20 01:01:55;;;;;;;17.17;13.73;;;13.30;99.90;;;;;;4972446;28;20138;-58
2022/05/20 01:04:22;;;;;;;15.48;13.20;;;13.20;99.90;;;;;;4971987;28;20106;-57
2022/05/20 01:06:49;;;;;;;21.73;14.00;;;13.30;99.90;;;;;;4972421;28;20054;-57
2022/05/20 01:09:15;;;;;;;19.90;13.73;;;13.30;99.90;;;;;;4964020;28;20062;-57
2022/05/20 01:11:40;;;;;;;17.45;12.50;;;13.30;99.90;;;;;;4972376;28;20046;-57
2022/05/20 01:14:08;;;;;;;21.65;13.82;;;13.20;99.90;;;;;;4972078;28;20041;-58
2022/05/20 01:16:34;;;;;;;20.88;13.30;;;13.10;99.90;;;;;;4972120;28;20038;-57
2022/05/20 01:19:01;;;;;;;17.50;12.52;;;13.20;99.90;;;;;;4963567;28;20042;-57
2022/05/20 01:21:27;;;;;;;17.08;12.32;;;13.20;99.90;;;;;;4952795;29;20037;-57
2022/05/20 01:24:00;;;;;;;18.08;12.70;;;13.10;99.90;;;;;;4952617;28;20086;-57
2022/05/20 01:26:25;;;;;;;15.93;12.63;;;13.10;99.90;;;;;;4970859;28;20070;-57
2022/05/20 01:28:51;;;;;;;18.13;12.50;;;13.20;99.90;;;;;;4972203;28;20494;-57
2022/05/20 01:31:17;;;;;;;16.95;12.30;;;13.00;99.90;;;;;;4972204;28;20039;-57
2022/05/20 01:33:46;;;;;;;18.25;12.32;;;13.00;99.90;;;;;;4971720;28;20061;-57
2022/05/20 01:36:16;;;;;;;17.42;12.20;;;13.00;99.90;;;;;;4966524;28;20027;-57
2022/05/20 01:38:42;;;;;;;16.38;12.23;;;13.00;99.90;;;;;;4966950;28;20043;-57
2022/05/20 01:41:14;;;;;;;19.33;12.55;;;12.80;99.90;;;;;;4971743;28;20037;-57
2022/05/20 01:43:42;;;;;;;17.50;13.15;;;12.70;99.90;;;;;;4957114;28;20098;-57
2022/05/20 01:46:45;;;;;;;18.52;13.35;;;12.70;99.90;;;;;;4955883;28;20147;-57
2022/05/20 01:49:14;;;;;;;18.58;13.45;;;12.80;99.90;;;;;;4974804;28;20035;-57
2022/05/20 01:51:50;;;;;;;21.83;14.18;;;12.60;99.90;;;;;;4974911;28;20042;-57
2022/05/20 01:54:25;;;;;;;20.08;13.77;;;12.60;99.90;;;;;;4975161;28;20046;-57
2022/05/20 01:56:58;;;;;;;19.73;13.73;;;12.60;99.90;;;;;;4975115;28;20455;-57
2022/05/20 01:59:30;;;;;;;17.17;13.50;;;12.60;99.90;;;;;;4957673;28;20129;-57
2022/05/20 02:02:28;;;;;;;19.70;13.73;;;12.60;99.90;;;;;;4974950;28;20039;-56
2022/05/20 02:05:13;;;;;;;22.05;13.85;;;12.60;99.90;;;;;;4939891;28;20134;-56
2022/05/20 02:07:44;;;;;;;18.00;14.07;;;12.50;99.90;;;;;;4974820;28;20038;-56
2022/05/20 02:10:29;;;;;;;22.00;15.82;;;12.50;99.90;;;;;;4974887;28;20051;-58
2022/05/20 02:12:58;;;;;;;22.05;14.75;;;12.50;99.90;;;;;;4975163;28;20043;-58
2022/05/20 02:15:52;;;;;;;24.73;15.45;;;12.50;99.90;;;;;;4974961;28;20062;-57
2022/05/20 02:18:41;;;;;;;24.15;15.68;;;12.40;99.90;;;;;;4970478;28;20495;-57
2022/05/20 02:21:12;;;;;;;21.48;14.65;;;12.30;99.90;;;;;;4974900;28;20043;-57
2022/05/20 02:23:46;;;;;;;23.67;16.15;;;12.40;99.90;;;;;;4974364;28;20043;-58
2022/05/20 02:26:16;;;;;;;;;;;12.40;99.90;;;;;;4974804;28;20031;-57
2022/05/20 02:28:47;;;;;;;19.63;15.40;;;12.40;99.90;;;;;;4974612;28;20022;-57
2022/05/20 02:31:28;;;;;;;25.08;17.45;;;12.30;99.90;;;;;;4956970;28;20039;-57
2022/05/20 02:33:54;;;;;;;22.77;16.63;;;12.30;99.90;;;;;;4974197;28;20491;-57
2022/05/20 02:36:25;;;;;;;22.52;16.58;;;12.30;99.90;;;;;;4974578;28;20046;-57
2022/05/20 02:38:52;;;;;;;27.20;17.73;;;12.20;99.90;;;;;;4974476;28;20479;-57
2022/05/20 02:41:17;;;;;;;23.67;16.85;;;12.10;99.90;;;;;;4969010;28;20038;-57
2022/05/20 02:43:44;;;;;;;21.63;16.52;;;12.20;99.90;;;;;;4974467;28;20113;-57
2022/05/20 02:46:11;;;;;;;25.20;15.95;;;12.10;99.90;;;;;;4974072;28;20035;-57
2022/05/20 02:48:36;;;;;;;22.92;15.57;;;12.00;99.90;;;;;;4974258;28;20034;-57
2022/05/20 02:51:03;;;;;;;21.08;15.18;;;12.10;99.90;;;;;;4973907;28;20084;-56
2022/05/20 02:53:29;;;;;;;22.90;15.55;;;12.00;99.90;;;;;;4958372;28;20047;-56
2022/05/20 02:55:55;;;;;;;18.67;14.13;;;12.10;99.90;;;;;;4973977;28;20051;-57
2022/05/20 03:04:12;;;;;;;19.83;14.82;;;11.70;99.90;;;;;;4973227;28;20122;-57
2022/05/20 03:06:45;;;;;;;17.63;14.27;;;11.80;99.90;;;;;;4973948;28;20047;-57
2022/05/20 03:09:13;;;;;;;19.42;14.23;;;11.70;99.90;;;;;;4973804;28;20248;-57
2022/05/20 03:11:40;;;;;;;16.48;14.40;;;11.60;99.90;;;;;;4973740;28;20105;-57
2022/05/20 03:14:08;;;;;;;17.50;14.30;;;11.50;99.90;;;;;;4969189;28;20089;-57
2022/05/20 03:16:35;;;;;;;17.83;14.43;;;11.50;99.90;;;;;;4965676;28;20056;-57
2022/05/20 03:19:01;;;;;;;19.23;14.52;;;11.50;99.90;;;;;;4967439;28;20038;-58
2022/05/20 03:21:27;;;;;;;19.17;13.85;;;11.50;99.90;;;;;;4966634;28;20089;-57
2022/05/20 03:23:53;;;;;;;17.40;13.65;;;11.40;99.90;;;;;;4967926;28;20390;-57
2022/05/20 03:26:20;;;;;;;16.95;13.90;;;11.30;99.90;;;;;;4967980;28;20117;-57
2022/05/20 03:28:46;;;;;;;17.55;13.32;;;11.30;99.90;;;;;;4966753;28;20078;-57
2022/05/20 03:31:12;;;;;;;16.30;14.07;;;11.20;99.90;;;;;;4966323;28;20475;-57
2022/05/20 03:33:40;;;;;;;18.45;16.25;;;11.40;99.90;;;;;;4965484;28;20126;-63
2022/05/20 03:36:06;;;;;;;17.02;12.98;;;11.40;99.90;;;;;;4967158;28;20404;-56
2022/05/20 03:38:33;;;;;;;17.48;11.25;;;11.50;99.90;;;;;;4967317;28;20035;-57
2022/05/20 03:40:59;;;;;;;16.83;8.60;;;11.50;99.90;;;;;;4967091;28;20474;-56
2022/05/20 03:43:26;;;;;;;29.08;7.50;;;11.50;99.90;;;;;;4965601;28;20046;-56
2022/05/20 03:45:53;;;;;;;11.63;7.10;;;11.50;99.90;;;;;;4970543;28;20047;-57
2022/05/20 03:48:20;;;;;;;11.18;7.80;;;11.30;99.90;;;;;;4967504;28;20545;-57
2022/05/20 03:50:46;;;;;;;11.57;8.32;;;11.40;99.90;;;;;;4969070;28;20126;-57
2022/05/20 03:53:12;;;;;;;11.13;8.65;;;11.50;99.90;;;;;;4964408;28;20105;-57
2022/05/20 03:55:37;;;;;;;10.88;8.80;;;11.50;99.90;;;;;;4967014;28;20123;-57
2022/05/20 03:58:03;;;;;;;11.13;8.98;;;11.40;99.90;;;;;;4966875;28;20138;-57
2022/05/20 04:00:29;;;;;;;12.07;9.45;;;11.50;99.90;;;;;;4967307;28;20074;-57
2022/05/20 04:02:55;;;;;;;12.20;9.98;;;11.50;99.90;;;;;;4967435;28;20046;-57
2022/05/20 04:05:21;;;;;;;11.63;10.43;;;11.50;99.90;;;;;;4964182;28;20037;-57
2022/05/20 04:07:47;;;;;;;13.15;11.65;;;11.40;99.90;;;;;;4967320;28;20077;-57
2022/05/20 04:10:13;;;;;;;13.07;11.77;;;11.50;99.90;;;;;;4967046;28;20074;-57
2022/05/20 04:12:41;;;;;;;14.68;9.95;;;11.50;99.90;;;;;;4966190;28;20038;-57
2022/05/20 04:15:10;;;;;;;23.95;11.07;;;11.50;99.90;;;;;;4950566;28;20045;-57
2022/05/20 04:17:36;;;;;;;50.03;10.80;;;11.40;99.90;;;;;;4966019;28;20035;-57
2022/05/20 04:20:07;;;;;;;63.80;9.93;;;11.30;99.90;;;;;;4966920;28;20031;-58
2022/05/20 04:22:36;;;;;;;27.48;8.98;;;11.30;99.90;;;;;;4965341;28;20376;-57
2022/05/20 04:25:03;;;;;;;18.52;6.53;;;11.10;99.90;;;;;;4966061;28;20043;-58
2022/05/20 04:27:28;;;;;;;8.52;6.97;;;11.00;99.90;;;;;;4966640;28;20045;-57
2022/05/20 04:29:55;;;;;;;16.30;6.55;;;11.10;99.90;;;;;;4965599;28;20042;-57
2022/05/20 04:32:21;;;;;;;12.02;6.35;;;11.10;99.90;;;;;;4967334;28;20047;-58
2022/05/20 04:34:47;;;;;;;8.93;6.13;;;11.00;99.90;;;;;;4965473;28;20039;-57
2022/05/20 04:37:14;;;;;;;10.18;6.13;;;10.90;99.90;;;;;;4966234;28;20034;-57
2022/05/20 04:39:40;;;;;;;10.65;5.53;;;10.90;99.90;;;;;;4965985;28;20094;-57
2022/05/20 04:47:35;;;;;;;80.80;8.57;;;10.90;99.90;;;;;;4967657;28;20054;-57
2022/05/20 04:50:02;;;;;;;9.40;7.90;;;10.90;99.90;;;;;;4964970;28;20043;-58
2022/05/20 04:52:28;;;;;;;10.45;7.97;;;11.00;99.90;;;;;;4966622;28;20035;-58
2022/05/20 04:54:54;;;;;;;12.43;9.10;;;11.10;99.90;;;;;;4967185;28;20042;-58
2022/05/20 04:57:19;;;;;;;11.45;9.95;;;11.00;99.90;;;;;;4965879;28;20051;-58
2022/05/20 04:59:45;;;;;;;12.02;10.02;;;11.00;99.90;;;;;;4964947;28;20046;-58
2022/05/20 05:02:12;;;;;;;13.57;11.48;;;11.20;99.90;;;;;;4970106;28;20051;-58
2022/05/20 05:04:37;;;;;;;14.05;11.20;;;11.20;99.90;;;;;;4952180;28;20077;-57
2022/05/20 05:07:03;;;;;;;12.85;11.25;;;11.30;99.90;;;;;;4966415;28;20121;-57
2022/05/20 05:09:29;;;;;;;13.00;11.27;;;11.40;99.90;;;;;;4966442;28;20042;-58
2022/05/20 05:11:55;;;;;;;13.63;11.70;;;11.50;99.90;;;;;;4966712;28;20035;-56
2022/05/20 05:14:21;;;;;;;14.98;12.10;;;11.40;99.90;;;;;;4966059;28;20031;-57
2022/05/20 05:16:47;;;;;;;13.13;11.73;;;11.60;99.90;;;;;;4968520;28;20486;-57
2022/05/20 05:19:12;;;;;;;14.13;12.68;;;11.60;99.90;;;;;;4969777;28;20051;-57
2022/05/20 05:21:38;;;;;;;14.75;12.13;;;11.70;99.90;;;;;;4971337;28;20483;-57
2022/05/20 05:24:05;;;;;;;14.20;12.43;;;11.80;99.90;;;;;;4969786;28;20042;-57
2022/05/20 05:26:32;;;;;;;14.93;13.32;;;11.90;99.90;;;;;;4969140;28;20076;-57
2022/05/20 05:28:59;;;;;;;17.42;14.20;;;11.80;99.90;;;;;;4967821;28;20053;-57
2022/05/20 05:31:26;;;;;;;17.48;14.43;;;11.90;99.90;;;;;;4968906;28;20054;-57
2022/05/20 05:33:53;;;;;;;20.95;15.23;;;12.20;99.90;;;;;;4970806;28;20033;-57
2022/05/20 05:36:19;;;;;;;16.38;14.45;;;12.40;99.90;;;;;;4969955;28;20039;-57
2022/05/20 05:38:46;;;;;;;18.23;14.70;;;12.50;99.90;;;;;;4969863;28;20392;-56
2022/05/20 05:41:12;;;;;;;19.70;15.60;;;12.70;99.90;;;;;;4970354;28;20057;-58
2022/05/20 05:43:38;;;;;;;19.00;15.75;;;12.90;99.90;;;;;;4968354;28;20118;-57
2022/05/20 05:46:04;;;;;;;21.02;16.90;;;13.00;99.90;;;;;;4953290;28;20062;-57
2022/05/20 05:48:30;;;;;;;20.92;17.50;;;13.00;99.90;;;;;;4970675;28;20046;-57
2022/05/20 05:50:57;;;;;;;21.25;18.33;;;13.00;99.90;;;;;;4968198;28;20063;-58
2022/05/20 05:53:27;;;;;;;27.88;18.92;;;12.90;99.90;;;;;;4969128;28;20043;-58
2022/05/20 05:56:01;;;;;;;21.50;17.90;;;12.90;99.90;;;;;;4968417;28;20087;-57
2022/05/20 05:58:28;;;;;;;24.77;18.35;;;13.00;99.90;;;;;;4969862;28;20086;-57
2022/05/20 06:00:55;;;;;;;25.63;18.77;;;13.00;99.90;;;;;;4968532;28;20039;-57
2022/05/20 06:03:21;;;;;;;24.92;18.75;;;13.00;99.90;;;;;;4968200;28;20043;-57
2022/05/20 06:05:47;;;;;;;26.10;18.65;;;13.20;99.90;;;;;;4952010;28;20040;-58
2022/05/20 06:08:14;;;;;;;25.58;18.20;;;13.30;99.90;;;;;;4969464;28;20123;-57
2022/05/20 06:10:41;;;;;;;24.92;17.95;;;13.30;99.90;;;;;;4967986;28;20039;-58
2022/05/20 06:13:06;;;;;;;22.88;16.73;;;13.30;99.90;;;;;;4967639;28;20043;-57
2022/05/20 06:15:32;;;;;;;24.98;17.67;;;13.40;99.90;;;;;;4967805;28;20089;-57
2022/05/20 06:17:58;;;;;;;23.58;17.58;;;13.40;99.90;;;;;;4969066;28;20027;-57
2022/05/20 06:20:25;;;;;;;22.20;17.15;;;13.50;99.90;;;;;;4968088;28;20122;-57
2022/05/20 06:22:51;;;;;;;23.48;17.50;;;13.40;99.90;;;;;;4951152;28;20090;-57
2022/05/20 06:25:17;;;;;;;22.17;18.27;;;13.50;99.90;;;;;;4952202;28;20102;-57
2022/05/20 06:27:43;;;;;;;24.23;18.17;;;13.70;99.90;;;;;;4967312;28;20365;-57
2022/05/20 06:30:13;;;;;;;22.48;17.75;;;13.80;99.90;;;;;;4966777;28;20035;-57
2022/05/20 06:32:39;;;;;;;23.17;16.85;;;13.80;99.90;;;;;;4967290;28;20042;-57
2022/05/20 06:40:48;;;;;;;21.17;15.15;;;14.00;99.90;;;;;;4967413;28;20105;-57
2022/05/20 06:43:19;;;;;;;20.80;15.35;;;14.10;99.90;;;;;;4968670;28;20038;-56
2022/05/20 06:45:51;;;;;;;20.95;14.48;;;14.10;99.90;;;;;;4967038;28;20042;-57
2022/05/20 06:48:17;;;;;;;22.45;15.00;;;14.20;99.90;;;;;;4969793;28;20034;-57
2022/05/20 06:50:43;;;;;;;23.52;15.45;;;14.20;99.90;;;;;;4968692;28;20053;-58
2022/05/20 06:53:09;;;;;;;22.02;16.23;;;14.20;99.90;;;;;;4969613;28;20118;-57
2022/05/20 06:55:35;;;;;;;19.58;15.27;;;14.30;99.90;;;;;;4968169;28;20027;-57
2022/05/20 06:58:02;;;;;;;19.52;14.40;;;14.50;99.90;;;;;;4952455;28;20050;-57
2022/05/20 07:00:28;;;;;;;21.50;15.35;;;14.50;99.90;;;;;;4967729;28;20435;-57
2022/05/20 07:02:54;;;;;;;23.98;14.30;;;14.50;99.90;;;;;;4952010;28;20044;-57
2022/05/20 07:05:20;;;;;;;25.52;15.27;;;14.60;99.90;;;;;;4967094;28;20085;-58
2022/05/20 07:07:46;;;;;;;28.08;15.60;;;14.60;99.90;;;;;;4965855;28;20031;-58
2022/05/20 07:10:13;;;;;;;18.52;13.85;;;14.60;99.90;;;;;;4968884;28;20457;-57
2022/05/20 07:12:39;;;;;;;30.88;15.75;;;14.60;99.90;;;;;;4968024;28;20039;-57
2022/05/20 07:15:07;;;;;;;23.63;15.38;;;14.60;99.90;;;;;;4968885;28;20035;-57
2022/05/20 07:17:32;;;;;;;18.15;14.68;;;14.70;99.90;;;;;;4967743;28;20077;-57
2022/05/20 07:19:58;;;;;;;21.27;14.50;;;14.80;99.90;;;;;;4971921;28;20066;-57
2022/05/20 07:22:24;;;;;;;19.38;14.27;;;14.90;99.90;;;;;;4956193;28;20046;-58
2022/05/20 07:24:50;;;;;;;22.88;13.63;;;14.90;99.90;;;;;;4959015;28;20038;-57
2022/05/20 07:27:16;;;;;;;19.30;13.48;;;14.90;99.90;;;;;;4954319;28;20042;-58
2022/05/20 07:29:43;;;;;;;17.92;13.43;;;15.00;99.90;;;;;;4951482;28;20068;-58
2022/05/20 07:32:09;;;;;;;16.80;12.45;;;15.10;99.90;;;;;;4966837;28;20026;-57
2022/05/20 07:34:35;;;;;;;20.02;13.27;;;15.30;99.90;;;;;;4966352;28;20046;-57
2022/05/20 07:37:01;;;;;;;16.60;12.77;;;15.40;99.90;;;;;;4971536;28;20082;-57
2022/05/20 07:39:26;;;;;;;17.98;13.18;;;15.50;99.90;;;;;;4972773;28;20039;-57
2022/05/20 07:41:52;;;;;;;17.65;13.23;;;15.50;99.90;;;;;;4970841;28;20501;-57
2022/05/20 07:44:19;;;;;;;18.30;12.98;;;15.50;99.90;;;;;;4974261;28;20112;-57
2022/05/20 07:46:45;;;;;;;15.02;11.85;;;15.70;99.90;;;;;;4970450;28;20039;-57
2022/05/20 07:49:11;;;;;;;16.33;12.02;;;15.70;99.90;;;;;;4971194;28;22929;-58
2022/05/20 07:51:41;;;;;;;17.92;12.13;;;15.90;99.90;;;;;;4967580;28;20081;-58
2022/05/20 07:54:13;;;;;;;17.30;12.52;;;16.10;99.90;;;;;;4971910;28;20038;-57
2022/05/20 07:56:44;;;;;;;16.17;12.05;;;16.30;99.90;;;;;;4967171;28;20074;-58
2022/05/20 07:59:25;;;;;;;16.15;11.40;;;16.40;99.90;;;;;;4960281;28;20047;-57
2022/05/20 08:01:53;;;;;;;15.32;11.15;;;16.40;99.90;;;;;;4967185;28;20555;-58
2022/05/20 08:07:15;;;;;;;15.50;10.45;;;16.50;99.90;;;;;;4969257;28;20073;-57
2022/05/20 08:09:41;;;;;;;16.13;11.10;;;16.50;99.90;;;;;;4971281;28;20038;-58
2022/05/20 08:12:08;;;;;;;14.35;10.75;;;16.50;99.90;;;;;;4970528;28;20533;-57
2022/05/20 08:14:34;;;;;;;14.80;10.00;;;16.50;99.90;;;;;;4955836;28;20502;-58
2022/05/20 08:17:01;;;;;;;14.00;10.15;;;16.40;99.90;;;;;;4957848;28;20031;-58
2022/05/20 08:19:27;;;;;;;14.55;10.50;;;16.30;99.90;;;;;;4953273;28;20062;-59
2022/05/20 08:21:53;;;;;;;14.52;9.63;;;16.30;99.90;;;;;;4971036;28;20446;-58
2022/05/20 08:24:19;;;;;;;17.55;10.52;;;16.40;99.90;;;;;;4971244;28;20042;-59
2022/05/20 08:26:46;;;;;;;17.08;10.18;;;16.40;99.90;;;;;;4972191;28;20034;-59
2022/05/20 08:29:12;;;;;;;14.43;10.40;;;16.80;99.90;;;;;;4971863;28;20043;-58
2022/05/20 08:31:39;;;;;;;14.55;10.43;;;16.70;99.90;;;;;;4971912;28;20038;-58
2022/05/20 08:34:05;;;;;;;15.23;10.13;;;16.70;99.90;;;;;;4971580;28;20035;-59
2022/05/20 08:36:31;;;;;;;13.75;10.15;;;16.90;99.90;;;;;;4972453;28;20037;-59
2022/05/20 08:38:57;;;;;;;13.82;9.85;;;17.20;99.90;;;;;;4972339;28;20402;-58
2022/05/20 08:41:31;;;;;;;15.07;9.50;;;17.00;99.90;;;;;;4972427;28;20034;-58
2022/05/20 08:43:57;;;;;;;14.18;8.88;;;17.10;99.90;;;;;;4972223;28;20045;-58
2022/05/20 08:46:24;;;;;;;17.02;9.15;;;17.10;99.90;;;;;;4971993;28;20105;-58
2022/05/20 08:48:53;;;;;;;11.30;8.57;;;17.10;99.90;;;;;;4971822;28;20035;-58
2022/05/20 08:51:19;;;;;;;13.90;8.70;;;17.20;99.90;;;;;;4975453;28;20054;-58
2022/05/20 08:53:48;;;;;;;13.93;9.07;;;17.50;99.90;;;;;;4975942;28;20035;-59
2022/05/20 08:56:19;;;;;;;11.68;9.52;;;17.60;99.90;;;;;;4975986;28;20105;-58
2022/05/20 08:58:53;;;;;;;13.15;8.88;;;17.60;99.90;;;;;;4966722;28;20435;-58
2022/05/20 09:01:32;;;;;;;11.50;8.18;;;17.80;99.90;;;;;;4975069;28;20042;-58
2022/05/20 09:03:58;;;;;;;14.80;8.35;;;18.00;99.90;;;;;;4975626;28;20031;-58
2022/05/20 09:06:25;;;;;;;12.30;8.13;;;18.10;99.90;;;;;;4975844;28;20367;-59
2022/05/20 09:09:14;;;;;;;10.80;8.23;;;18.10;99.90;;;;;;4975430;28;20693;-58
2022/05/20 09:11:42;;;;;;;13.30;8.80;;;18.30;99.90;;;;;;4970322;28;20391;-58
2022/05/20 09:17:04;;;;;;;16.27;9.30;;;18.50;99.90;;;;;;4975482;28;20039;-58
2022/05/20 09:19:30;;;;;;;12.57;8.20;;;18.60;99.90;;;;;;4975265;28;20042;-58
2022/05/20 09:22:12;;;;;;;10.85;8.35;;;18.80;99.90;;;;;;4974327;28;20106;-58
2022/05/20 09:24:43;;;;;;;14.48;8.63;;;18.80;99.90;;;;;;4975449;28;20054;-58
2022/05/20 09:27:17;;;;;;;13.10;8.52;;;18.70;99.90;;;;;;4975353;28;20468;-58
2022/05/20 09:29:47;;;;;;;;;;;18.70;99.90;;;;;;4975324;28;20039;-58
2022/05/20 09:32:38;;;;;;;11.52;7.50;;;18.80;99.90;;;;;;4973179;28;19944;-59
2022/05/20 09:35:07;;;;;;;12.52;7.57;;;18.70;99.90;;;;;;4967642;28;20406;-58
2022/05/20 09:37:34;;;;;;;12.13;7.43;;;18.60;99.90;;;;;;4973855;28;20479;-58
2022/05/20 09:40:31;;;;;;;9.55;6.80;;;18.50;99.90;;;;;;4974086;28;20740;-59
2022/05/20 09:43:06;;;;;;;9.82;6.75;;;18.60;99.90;;;;;;4973683;28;20045;-58
2022/05/20 09:45:46;;;;;;;12.63;7.57;;;18.60;99.90;;;;;;4973709;28;20049;-58
2022/05/20 09:48:41;;;;;;;14.38;7.22;;;18.70;99.90;;;;;;4956646;28;20051;-59
2022/05/20 09:51:15;;;;;;;;;;;18.70;99.90;;;;;;4966991;28;20068;-58
2022/05/20 09:53:43;;;;;;;10.20;7.27;;;18.80;99.90;;;;;;4973367;28;19918;-58
2022/05/20 09:56:25;;;;;;;10.48;7.30;;;19.00;99.90;;;;;;4974937;28;20525;-58
2022/05/20 09:59:12;;;;;;;11.20;7.93;;;19.10;99.90;;;;;;4962893;28;20081;-59
2022/05/20 10:01:40;;;;;;;11.73;7.40;;;19.30;99.90;;;;;;4973725;28;20035;-59
2022/05/20 10:04:11;;;;;;;10.52;6.78;;;19.30;99.90;;;;;;4974447;28;20031;-59
2022/05/20 10:06:51;;;;;;;12.27;7.55;;;19.60;99.90;;;;;;4974724;28;20035;-59
2022/05/20 10:09:54;;;;;;;10.52;6.47;;;19.60;99.90;;;;;;4974363;28;20049;-58
2022/05/20 10:12:29;;;;;;;10.68;6.50;;;19.70;99.90;;;;;;4933698;29;20115;-58
2022/05/20 10:15:16;;;;;;;8.27;6.72;;;20.00;99.90;;;;;;4969685;28;20125;-58
2022/05/20 10:18:05;;;;;;;15.10;7.05;;;20.00;99.90;;;;;;4973432;28;20034;-59
2022/05/20 10:20:46;;;;;;;11.10;7.15;;;20.00;99.90;;;;;;4963827;28;20050;-58
2022/05/20 10:23:25;;;;;;;8.95;6.68;;;19.90;99.90;;;;;;4953454;29;20082;-59
2022/05/20 10:26:05;;;;;;;11.05;6.72;;;20.00;99.90;;;;;;4972850;28;20038;-59
2022/05/20 10:34:47;;;;;;;11.32;5.78;;;20.40;99.90;;;;;;4972418;28;20045;-58
2022/05/20 10:37:34;;;;;;;9.95;5.43;;;20.40;99.90;;;;;;4972520;28;20050;-59
2022/05/20 10:40:25;;;;;;;9.18;5.35;;;20.30;99.90;;;;;;4954995;28;20114;-58
2022/05/20 10:43:10;;;;;;;12.27;5.18;;;20.50;99.90;;;;;;4945310;28;20038;-59
2022/05/20 10:49:18;;;;;;;8.50;4.90;;;20.70;99.90;;;;;;4972996;28;20050;-58
2022/05/20 10:52:16;;;;;;;8.70;4.88;;;20.80;99.90;;;;;;4967652;28;20487;-58
2022/05/20 10:54:58;;;;;;;10.55;5.35;;;20.80;99.90;;;;;;4972751;28;20090;-57
2022/05/20 10:57:45;;;;;;;8.90;5.15;;;20.90;99.90;;;;;;4973066;28;20054;-58
2022/05/20 11:00:20;;;;;;;8.00;4.90;;;20.90;99.90;;;;;;4972672;28;20436;-58
2022/05/20 11:03:10;;;;;;;8.30;4.00;;;21.00;99.90;;;;;;4971118;28;20538;-58
2022/05/20 11:06:00;;;;;;;10.93;4.88;;;21.20;99.90;;;;;;4973302;28;20161;-57
2022/05/20 11:08:52;;;;;;;5.85;3.97;;;21.00;99.90;;;;;;4972762;28;20046;-58
2022/05/20 11:11:34;;;;;;;9.15;5.22;;;21.50;99.90;;;;;;4973451;28;20038;-57
2022/05/20 11:14:33;;;;;;;7.25;4.60;;;21.70;99.90;;;;;;4971945;28;20057;-57
2022/05/20 11:17:05;;;;;;;6.65;3.90;;;21.80;99.90;;;;;;4956356;28;20116;-57
2022/05/20 11:19:44;;;;;;;7.45;3.58;;;21.80;99.80;;;;;;4972965;28;20038;-58
2022/05/20 11:22:47;;;;;;;9.93;3.83;;;22.10;99.90;;;;;;4984505;28;20065;-59
2022/05/20 11:25:18;;;;;;;7.47;3.42;;;22.10;99.50;;;;;;4971089;28;20138;-58
2022/05/20 11:28:03;;;;;;;6.88;4.15;;;22.20;98.50;;;;;;4973028;28;20085;-57
2022/05/20 11:30:34;;;;;;;7.90;4.78;;;22.10;98.40;;;;;;4972964;28;20054;-58
2022/05/20 11:33:42;;;;;;;7.65;5.55;;;22.10;99.90;;;;;;4970487;28;20139;-58
2022/05/20 11:36:26;;;;;;;8.88;5.38;;;22.00;99.90;;;;;;4954044;28;20054;-57
2022/05/20 11:39:07;;;;;;;10.15;5.22;;;22.00;99.90;;;;;;4973410;28;20118;-58
2022/05/20 11:42:03;;;;;;;7.25;4.75;;;21.90;99.90;;;;;;4972687;28;20038;-57
2022/05/20 11:45:09;;;;;;;8.55;5.80;;;21.80;99.90;;;;;;4972781;28;20046;-58
2022/05/20 11:48:02;;;;;;;11.60;5.32;;;21.70;99.50;;;;;;5088631;28;20784;-59
2022/05/20 11:50:46;;;;;;;7.30;4.43;;;21.70;99.60;;;;;;5077058;28;20036;-59
2022/05/20 11:53:21;;;;;;;;;;;21.40;97.50;;;;;;5089015;28;20147;-59
2022/05/20 11:55:52;;;;;;;;;;;21.20;97.90;;;;;;5089076;28;20001;-60
2022/05/20 11:58:27;;;;;;;7.22;4.68;;;21.00;99.10;;;;;;5088915;28;19916;-59
2022/05/20 12:00:54;;;;;;;7.97;4.85;;;21.30;98.60;;;;;;5088183;28;20060;-58
2022/05/20 12:03:25;;;;;;;7.75;5.20;;;21.40;99.40;;;;;;5088138;28;20036;-58
2022/05/20 12:05:52;;;;;;;10.13;5.95;;;21.40;99.50;;;;;;5087009;28;20043;-58
2022/05/20 12:08:42;;;;;;;10.20;5.45;;;21.60;99.90;;;;;;5088511;28;20043;-59
2022/05/20 12:11:35;;;;;;;8.35;5.63;;;21.60;99.90;;;;;;5088508;28;20047;-59
2022/05/20 12:14:07;;;;;;;8.68;5.28;;;21.60;99.80;;;;;;5088241;28;20487;-59
2022/05/20 12:16:51;;;;;;;6.88;5.07;;;21.70;99.90;;;;;;5086752;28;20036;-59
2022/05/20 12:25:30;;;;;;;8.00;5.80;;;21.90;99.60;;;;;;5087911;28;20115;-58
2022/05/20 12:28:09;;;;;;;8.18;4.50;;;21.80;98.90;;;;;;5086856;28;20048;-59
2022/05/20 12:30:44;;;;;;;8.00;5.10;;;21.80;97.50;;;;;;5088229;28;20048;-60
2022/05/20 12:33:20;;;;;;;10.52;5.22;;;21.70;97.70;;;;;;5087440;28;20384;-60
2022/05/20 12:36:17;;;;;;;9.10;5.97;;;21.70;97.70;;;;;;5087854;28;20175;-59
2022/05/20 12:38:43;;;;;;;7.88;5.40;;;21.60;98.30;;;;;;5080542;28;20082;-59
2022/05/20 12:41:19;;;;;;;10.25;5.13;;;21.50;98.90;;;;;;5087880;28;20033;-58
2022/05/20 12:43:50;;;;;;;7.85;4.80;;;21.40;98.30;;;;;;5087728;28;20613;-59
2022/05/20 12:46:35;;;;;;;7.07;4.75;;;21.20;97.80;;;;;;5087419;28;20506;-59
2022/05/20 12:49:01;;;;;;;9.40;4.95;;;21.10;97.40;;;;;;5087504;28;20036;-59
2022/05/20 12:51:27;;;;;;;8.27;5.38;;;20.90;98.10;;;;;;5087532;28;20400;-58
2022/05/20 12:53:53;;;;;;;9.23;5.20;;;20.70;98.00;;;;;;5087638;28;20036;-59
2022/05/20 12:56:28;;;;;;;6.60;5.00;;;20.60;98.60;;;;;;5087561;28;20032;-59
2022/05/20 12:59:11;;;;;;;7.68;5.05;;;20.40;98.30;;;;;;5073757;28;20396;-59
2022/05/20 13:01:38;;;;;;;8.02;4.93;;;20.40;98.80;;;;;;5074228;28;20040;-59
2022/05/20 13:04:10;;;;;;;6.32;4.70;;;20.30;98.20;;;;;;5073642;28;20116;-59
2022/05/20 13:06:36;;;;;;;8.07;4.50;;;20.20;97.90;;;;;;5072269;28;20047;-59
2022/05/20 13:09:06;;;;;;;6.65;4.13;;;20.10;98.70;;;;;;5073913;28;20032;-59
2022/05/20 13:11:46;;;;;;;8.27;4.07;;;20.00;98.10;;;;;;5073782;28;20040;-59
2022/05/20 13:14:14;;;;;;;7.93;4.18;;;19.90;98.60;;;;;;5073700;28;20119;-58
2022/05/20 13:16:44;;;;;;;6.80;4.13;;;19.80;99.30;;;;;;5071385;28;20094;-58
2022/05/20 13:19:13;;;;;;;7.72;4.88;;;19.60;99.90;;;;;;5071347;28;20044;-58
2022/05/20 13:21:44;;;;;;;8.88;4.53;;;19.50;99.90;;;;;;5063493;28;20132;-58
2022/05/20 13:24:18;;;;;;;7.97;5.25;;;19.40;99.90;;;;;;5062340;28;20123;-58
2022/05/20 13:26:44;;;;;;;8.82;5.10;;;19.40;99.90;;;;;;5064938;28;20078;-58
2022/05/20 13:29:17;;;;;;;14.48;5.78;;;19.30;99.90;;;;;;5069155;28;20032;-58
2022/05/20 13:31:42;;;;;;;9.85;6.03;;;19.20;99.90;;;;;;5070800;28;20078;-59
2022/05/20 13:34:09;;;;;;;11.00;7.05;;;19.00;99.90;;;;;;5065859;28;20056;-58
2022/05/20 13:36:48;;;;;;;11.80;7.05;;;18.90;99.90;;;;;;5068091;28;20048;-58
2022/05/20 13:39:21;;;;;;;11.30;7.97;;;18.70;99.90;;;;;;5066023;28;20754;-59
2022/05/20 13:41:48;;;;;;;14.77;9.52;;;18.60;99.90;;;;;;5066071;28;20047;-59
2022/05/20 13:44:14;;;;;;;14.57;9.48;;;18.50;99.90;;;;;;5068214;28;20045;-58
2022/05/20 13:49:50;;;;;;;24.83;11.55;;;18.30;99.90;;;;;;5046106;28;20050;-59
2022/05/20 13:52:17;;;;;;;15.73;10.93;;;18.20;99.90;;;;;;5062179;28;20044;-59
2022/05/20 13:54:49;;;;;;;20.20;11.25;;;18.00;99.90;;;;;;5065149;28;20444;-59
2022/05/20 13:57:21;;;;;;;14.45;10.55;;;17.70;99.90;;;;;;5068205;28;20157;-59
2022/05/20 13:59:50;;;;;;;17.85;11.50;;;17.50;99.90;;;;;;5068350;28;20032;-60
2022/05/20 14:02:18;;;;;;;16.73;11.40;;;17.50;99.90;;;;;;5066019;28;20064;-58
2022/05/20 14:04:55;;;;;;;18.33;12.95;;;17.40;99.90;;;;;;5064419;28;20055;-59
2022/05/20 14:07:27;;;;;;;18.13;13.48;;;17.50;99.90;;;;;;5067851;28;20040;-58
2022/05/20 14:09:56;;;;;;;18.55;13.45;;;17.50;99.90;;;;;;5062641;28;20061;-59